createdAt,value
2019-02-15T00:00:52.539Z,99.90
2019-02-15T00:03:24.292Z,99.90
2019-02-15T00:05:55.697Z,99.90
2019-02-15T00:08:27.156Z,99.90
2019-02-15T00:10:58.993Z,99.90
2019-02-15T00:13:31.018Z,99.90
2019-02-15T00:16:02.428Z,99.90
2019-02-15T00:18:42.989Z,99.90
2019-02-15T00:21:26.304Z,99.90
2019-02-15T00:23:57.805Z,99.90
2019-02-15T00:26:29.375Z,99.90
2019-02-15T00:29:02.662Z,99.90
2019-02-15T00:31:34.197Z,99.90
2019-02-15T00:34:05.975Z,99.90
2019-02-15T00:36:37.489Z,99.90
2019-02-15T00:39:09.751Z,99.90
2019-02-15T00:41:41.564Z,99.90
2019-02-15T00:44:15.791Z,99.90
2019-02-15T00:47:10.733Z,99.90
2019-02-15T00:50:08.929Z,99.90
2019-02-15T00:52:59.964Z,99.90
2019-02-15T00:55:37.529Z,99.90
2019-02-15T00:58:40.743Z,99.90
2019-02-15T01:01:30.496Z,99.90
2019-02-15T01:04:21.426Z,99.90
2019-02-15T01:07:21.160Z,99.90
2019-02-15T01:10:14.426Z,99.90
2019-02-15T01:12:50.708Z,99.90
2019-02-15T01:15:22.175Z,99.90
2019-02-15T01:17:53.680Z,99.90
2019-02-15T01:20:25.310Z,99.90
2019-02-15T01:22:56.851Z,99.90
2019-02-15T01:25:31.264Z,99.90
2019-02-15T01:28:10.730Z,99.90
2019-02-15T01:31:00.077Z,99.90
2019-02-15T01:33:53.625Z,99.90
2019-02-15T01:36:54.024Z,99.90
2019-02-15T01:39:36.589Z,99.90
2019-02-15T01:42:25.228Z,99.90
2019-02-15T01:45:11.117Z,99.90
2019-02-15T01:47:46.250Z,99.90
2019-02-15T01:50:19.152Z,99.90
2019-02-15T01:52:50.634Z,99.90
2019-02-15T01:55:22.105Z,99.90
2019-02-15T01:57:56.150Z,99.90
2019-02-15T02:00:31.797Z,99.90
2019-02-15T02:03:03.111Z,99.90
2019-02-15T02:05:34.438Z,99.90
2019-02-15T02:08:10.143Z,99.90
2019-02-15T02:10:41.810Z,99.90
2019-02-15T02:13:13.113Z,99.90
2019-02-15T02:15:45.658Z,99.90
2019-02-15T02:18:17.016Z,99.90
2019-02-15T02:20:50.271Z,99.90
2019-02-15T02:23:22.021Z,99.90
2019-02-15T02:25:53.424Z,99.90
2019-02-15T02:28:25.250Z,99.90
2019-02-15T02:30:57.297Z,99.90
2019-02-15T02:33:28.705Z,99.90
2019-02-15T02:36:00.263Z,99.90
2019-02-15T02:38:32.262Z,99.90
2019-02-15T02:41:04.012Z,99.90
2019-02-15T02:43:35.445Z,99.90
2019-02-15T02:46:07.071Z,99.90
2019-02-15T02:48:38.585Z,99.90
2019-02-15T02:51:10.639Z,99.90
2019-02-15T02:53:42.605Z,99.90
2019-02-15T02:56:14.327Z,99.90
2019-02-15T02:58:45.855Z,99.90
2019-02-15T03:01:17.275Z,99.90
2019-02-15T03:03:49.019Z,99.90
2019-02-15T03:06:20.571Z,99.90
2019-02-15T03:08:52.591Z,99.90
2019-02-15T03:11:24.341Z,99.90
2019-02-15T03:13:56.291Z,99.90
2019-02-15T03:16:28.145Z,99.90
2019-02-15T03:18:59.844Z,99.90
2019-02-15T03:21:33.321Z,99.90
2019-02-15T03:24:04.717Z,99.90
2019-02-15T03:26:37.152Z,99.90
2019-02-15T03:29:09.852Z,99.90
2019-02-15T03:31:42.071Z,99.90
2019-02-15T03:34:14.035Z,99.90
2019-02-15T03:37:07.399Z,99.90
2019-02-15T03:39:48.062Z,99.90
2019-02-15T03:42:21.484Z,99.90
2019-02-15T03:44:53.311Z,99.90
2019-02-15T03:47:27.421Z,99.90
2019-02-15T03:49:58.980Z,99.90
2019-02-15T03:52:32.288Z,99.90
2019-02-15T03:55:05.416Z,99.90
2019-02-15T03:57:38.840Z,99.90
2019-02-15T04:00:11.850Z,99.90
2019-02-15T04:02:44.163Z,99.90
2019-02-15T04:05:16.106Z,99.90
2019-02-15T04:07:49.026Z,99.90
2019-02-15T04:10:20.747Z,99.90
2019-02-15T04:12:52.770Z,99.90
2019-02-15T04:15:24.651Z,99.90
2019-02-15T04:17:56.568Z,99.90
2019-02-15T04:20:27.984Z,99.90
2019-02-15T04:22:59.555Z,99.90
2019-02-15T04:25:31.093Z,99.90
2019-02-15T04:28:02.866Z,99.90
2019-02-15T04:30:34.638Z,99.90
2019-02-15T04:33:06.193Z,99.90
2019-02-15T04:35:37.927Z,99.90
2019-02-15T04:38:09.949Z,99.90
2019-02-15T04:40:41.544Z,99.90
2019-02-15T04:43:12.950Z,99.90
2019-02-15T04:45:44.831Z,99.90
2019-02-15T04:48:16.539Z,99.90
2019-02-15T04:50:47.951Z,99.90
2019-02-15T04:53:19.564Z,99.90
2019-02-15T04:55:51.506Z,99.90
2019-02-15T04:58:23.339Z,99.90
2019-02-15T05:00:56.904Z,99.90
2019-02-15T05:03:28.401Z,99.90
2019-02-15T05:05:59.905Z,99.90
2019-02-15T05:08:31.903Z,99.90
2019-02-15T05:11:04.101Z,99.90
2019-02-15T05:13:36.759Z,99.90
2019-02-15T05:16:08.107Z,99.90
2019-02-15T05:18:39.661Z,99.90
2019-02-15T05:21:12.724Z,99.90
2019-02-15T05:23:44.338Z,99.90
2019-02-15T05:26:17.511Z,99.90
2019-02-15T05:28:49.041Z,99.90
2019-02-15T05:31:21.004Z,99.90
2019-02-15T05:33:52.427Z,99.90
2019-02-15T05:36:27.359Z,99.90
2019-02-15T05:38:59.199Z,99.90
2019-02-15T05:41:30.684Z,99.90
2019-02-15T05:44:04.793Z,99.90
2019-02-15T05:46:37.136Z,99.90
2019-02-15T05:49:09.894Z,99.90
2019-02-15T05:51:42.402Z,99.90
2019-02-15T05:54:13.778Z,99.90
2019-02-15T05:56:45.138Z,99.90
2019-02-15T05:59:17.531Z,99.90
2019-02-15T06:01:48.934Z,99.90
2019-02-15T06:04:20.347Z,99.90
2019-02-15T06:06:51.754Z,99.90
2019-02-15T06:09:23.295Z,99.90
2019-02-15T06:11:55.070Z,99.90
2019-02-15T06:14:26.996Z,99.90
2019-02-15T06:16:58.414Z,99.90
2019-02-15T06:19:29.899Z,99.90
2019-02-15T06:22:01.929Z,99.90
2019-02-15T06:24:35.239Z,99.90
2019-02-15T06:27:06.709Z,99.90
2019-02-15T06:29:38.360Z,99.90
2019-02-15T06:32:10.142Z,99.90
2019-02-15T06:34:42.104Z,99.90
2019-02-15T06:37:13.759Z,99.90
2019-02-15T06:39:45.536Z,99.90
2019-02-15T06:42:17.431Z,99.90
2019-02-15T06:44:49.902Z,99.90
2019-02-15T06:47:21.471Z,99.90
2019-02-15T06:49:53.317Z,99.90
2019-02-15T06:52:24.822Z,99.90
2019-02-15T06:54:56.602Z,99.90
2019-02-15T06:57:28.105Z,99.90
2019-02-15T07:00:33.950Z,99.90
2019-02-15T07:03:20.781Z,99.90
2019-02-15T07:05:52.168Z,99.90
2019-02-15T07:08:23.821Z,99.90
2019-02-15T07:10:55.407Z,99.90
2019-02-15T07:13:26.952Z,99.90
2019-02-15T07:16:00.075Z,99.90
2019-02-15T07:18:31.733Z,99.90
2019-02-15T07:21:03.723Z,99.90
2019-02-15T07:23:36.423Z,99.90
2019-02-15T07:26:08.536Z,99.90
2019-02-15T07:28:40.407Z,99.90
2019-02-15T07:31:13.411Z,99.90
2019-02-15T07:33:44.889Z,99.90
2019-02-15T07:36:16.439Z,99.90
2019-02-15T07:38:48.167Z,99.90
2019-02-15T07:41:19.884Z,99.90
2019-02-15T07:43:51.669Z,99.90
2019-02-15T07:46:23.815Z,99.90
2019-02-15T07:48:55.627Z,99.90
2019-02-15T07:51:27.303Z,99.90
2019-02-15T07:53:58.744Z,99.90
2019-02-15T07:56:30.163Z,99.90
2019-02-15T07:59:04.528Z,99.90
2019-02-15T08:01:36.886Z,99.90
2019-02-15T08:04:09.547Z,99.90
2019-02-15T08:06:41.251Z,99.90
2019-02-15T08:09:12.827Z,99.90
2019-02-15T08:11:44.216Z,99.90
2019-02-15T08:14:18.506Z,99.90
2019-02-15T08:16:50.201Z,99.90
2019-02-15T08:19:22.512Z,99.90
2019-02-15T08:21:54.414Z,99.90
2019-02-15T08:24:26.126Z,99.90
2019-02-15T08:27:00.250Z,99.90
2019-02-15T08:29:32.223Z,99.90
2019-02-15T08:32:05.367Z,99.90
2019-02-15T08:34:37.100Z,99.90
2019-02-15T08:37:10.292Z,99.90
2019-02-15T08:39:42.585Z,99.90
2019-02-15T08:42:14.343Z,99.90
2019-02-15T08:44:46.004Z,99.90
2019-02-15T08:47:19.178Z,99.90
2019-02-15T08:49:50.700Z,99.90
2019-02-15T08:52:22.335Z,99.90
2019-02-15T08:54:55.053Z,99.90
2019-02-15T08:57:28.046Z,99.90
2019-02-15T08:59:59.543Z,99.90
2019-02-15T09:02:31.331Z,99.90
2019-02-15T09:05:02.977Z,99.90
2019-02-15T09:07:34.579Z,99.90
2019-02-15T09:10:07.725Z,99.90
2019-02-15T09:12:39.131Z,99.90
2019-02-15T09:15:13.776Z,99.90
2019-02-15T09:17:45.715Z,99.90
2019-02-15T09:20:17.300Z,99.90
2019-02-15T09:22:48.711Z,99.90
2019-02-15T09:25:20.444Z,99.90
2019-02-15T09:28:10.827Z,99.90
2019-02-15T09:30:44.778Z,99.90
2019-02-15T09:33:16.339Z,99.90
2019-02-15T09:35:48.076Z,99.90
2019-02-15T09:38:20.090Z,99.90
2019-02-15T09:40:51.880Z,99.90
2019-02-15T09:43:23.930Z,99.90
2019-02-15T09:45:55.345Z,99.90
2019-02-15T09:48:28.483Z,99.90
2019-02-15T09:50:59.965Z,99.90
2019-02-15T09:53:31.417Z,99.90
2019-02-15T09:56:03.819Z,99.90
2019-02-15T09:58:35.291Z,99.90
2019-02-15T10:01:06.799Z,99.90
2019-02-15T10:03:38.770Z,99.90
2019-02-15T10:06:12.193Z,99.90
2019-02-15T10:08:43.648Z,99.90
2019-02-15T10:11:15.438Z,99.90
2019-02-15T10:13:46.859Z,99.90
2019-02-15T10:16:18.593Z,99.90
2019-02-15T10:18:50.303Z,99.90
2019-02-15T10:21:22.133Z,99.90
2019-02-15T10:23:53.622Z,99.90
2019-02-15T10:26:26.355Z,99.90
2019-02-15T10:28:58.545Z,99.90
2019-02-15T10:31:30.333Z,99.90
2019-02-15T10:34:01.860Z,99.90
2019-02-15T10:36:33.146Z,99.90
2019-02-15T10:39:05.947Z,99.90
2019-02-15T10:41:37.748Z,99.90
2019-02-15T10:44:09.243Z,99.90
2019-02-15T10:46:40.707Z,99.90
2019-02-15T10:49:12.294Z,99.90
2019-02-15T10:51:44.043Z,99.90
2019-02-15T10:54:15.463Z,99.90
2019-02-15T10:56:49.113Z,99.90
2019-02-15T10:59:20.595Z,99.90
2019-02-15T11:01:53.654Z,99.90
2019-02-15T11:04:25.695Z,99.90
2019-02-15T11:06:57.146Z,99.90
2019-02-15T11:09:28.882Z,99.90
2019-02-15T11:12:00.386Z,99.90
2019-02-15T11:14:32.956Z,99.90
2019-02-15T11:17:05.150Z,99.90
2019-02-15T11:19:36.768Z,99.90
2019-02-15T11:22:10.384Z,99.90
2019-02-15T11:24:42.057Z,99.90
2019-02-15T11:27:13.778Z,99.90
2019-02-15T11:29:45.658Z,99.90
2019-02-15T11:32:17.625Z,99.90
2019-02-15T11:34:52.612Z,99.90
2019-02-15T11:37:24.112Z,99.90
2019-02-15T11:39:55.683Z,99.90
2019-02-15T11:42:27.680Z,99.90
2019-02-15T11:44:59.112Z,99.90
2019-02-15T11:47:33.542Z,99.90
2019-02-15T11:50:05.668Z,99.90
2019-02-15T11:52:37.222Z,99.90
2019-02-15T11:55:09.139Z,99.90
2019-02-15T11:57:40.949Z,99.90
2019-02-15T12:00:17.822Z,99.90
2019-02-15T12:02:50.332Z,99.90
2019-02-15T12:05:22.349Z,99.90
2019-02-15T12:07:53.915Z,99.90
2019-02-15T12:10:26.805Z,99.90
2019-02-15T12:13:01.264Z,99.90
2019-02-15T12:15:32.775Z,99.90
2019-02-15T12:18:05.380Z,99.90
2019-02-15T12:20:36.901Z,99.90
2019-02-15T12:23:08.623Z,99.90
2019-02-15T12:25:40.264Z,99.90
2019-02-15T12:28:13.019Z,99.90
2019-02-15T12:30:44.977Z,99.90
2019-02-15T12:33:16.665Z,99.90
2019-02-15T12:35:48.490Z,99.90
2019-02-15T12:38:20.496Z,99.90
2019-02-15T12:40:52.194Z,99.90
2019-02-15T12:43:24.833Z,99.90
2019-02-15T12:45:56.167Z,99.90
2019-02-15T12:48:28.007Z,99.90
2019-02-15T12:50:59.427Z,99.90
2019-02-15T12:53:31.715Z,99.90
2019-02-15T12:56:05.112Z,95.90
2019-02-15T12:58:37.341Z,98.40
2019-02-15T13:01:09.255Z,99.90
2019-02-15T13:03:40.810Z,99.90
2019-02-15T13:06:15.532Z,97.60
2019-02-15T13:08:50.923Z,95.90
2019-02-15T13:11:22.879Z,98.60
2019-02-15T13:13:54.612Z,98.90
2019-02-15T13:16:27.163Z,99.60
2019-02-15T13:18:59.676Z,99.60
2019-02-15T13:21:31.872Z,99.40
2019-02-15T13:24:03.625Z,99.90
2019-02-15T13:26:37.024Z,97.90
2019-02-15T13:29:08.904Z,95.80
2019-02-15T13:31:42.059Z,99.90
2019-02-15T13:34:13.962Z,97.70
2019-02-15T13:36:45.871Z,98.30
2019-02-15T13:39:17.501Z,96.70
2019-02-15T13:41:49.210Z,99.90
2019-02-15T13:44:20.725Z,99.90
2019-02-15T13:46:52.959Z,99.40
2019-02-15T13:49:24.848Z,97.10
2019-02-15T13:51:56.369Z,98.10
2019-02-15T13:54:28.360Z,99.40
2019-02-15T13:57:00.224Z,97.10
2019-02-15T13:59:32.110Z,99.90
2019-02-15T14:02:05.299Z,98.30
2019-02-15T14:04:38.648Z,99.30
2019-02-15T14:07:20.444Z,99.10
2019-02-15T14:09:52.032Z,99.90
2019-02-15T14:12:25.468Z,99.90
2019-02-15T14:14:58.032Z,99.90
2019-02-15T14:17:29.790Z,99.90
2019-02-15T14:20:02.414Z,98.00
2019-02-15T14:22:35.252Z,97.40
2019-02-15T14:25:08.226Z,98.00
2019-02-15T14:27:39.691Z,98.60
2019-02-15T14:30:12.027Z,96.60
2019-02-15T14:32:45.053Z,99.80
2019-02-15T14:35:17.150Z,99.20
2019-02-15T14:37:49.882Z,99.20
2019-02-15T14:40:21.574Z,99.10
2019-02-15T14:42:54.924Z,99.90
2019-02-15T14:45:26.450Z,99.90
2019-02-15T14:47:57.874Z,99.10
2019-02-15T14:50:29.964Z,99.40
2019-02-15T14:53:02.463Z,98.00
2019-02-15T14:55:34.179Z,99.80
2019-02-15T14:58:05.695Z,99.60
2019-02-15T15:00:38.480Z,99.90
2019-02-15T15:03:10.145Z,99.20
2019-02-15T15:05:41.625Z,98.80
2019-02-15T15:08:16.585Z,96.20
2019-02-15T15:10:48.265Z,97.50
2019-02-15T15:13:20.015Z,97.00
2019-02-15T15:15:51.677Z,97.10
2019-02-15T15:18:23.407Z,96.20
2019-02-15T15:20:55.455Z,94.70
2019-02-15T15:23:27.015Z,92.40
2019-02-15T15:25:58.774Z,92.50
2019-02-15T15:28:30.895Z,94.50
2019-02-15T15:31:03.481Z,94.30
2019-02-15T15:33:36.070Z,93.60
2019-02-15T15:36:10.715Z,94.10
2019-02-15T15:38:44.122Z,95.00
2019-02-15T15:41:17.468Z,96.00
2019-02-15T15:43:50.608Z,95.70
2019-02-15T15:46:22.103Z,96.60
2019-02-15T15:48:55.073Z,93.20
2019-02-15T15:51:27.625Z,95.20
2019-02-15T15:54:00.036Z,98.00
2019-02-15T15:56:39.275Z,97.20
2019-02-15T15:59:12.612Z,98.40
2019-02-15T16:01:44.266Z,99.60
2019-02-15T16:04:17.249Z,99.90
2019-02-15T16:06:49.127Z,99.20
2019-02-15T16:09:22.480Z,99.90
2019-02-15T16:11:54.139Z,99.90
2019-02-15T16:14:25.710Z,99.90
2019-02-15T16:16:57.279Z,99.90
2019-02-15T16:19:28.780Z,99.90
2019-02-15T16:22:00.423Z,99.90
2019-02-15T16:24:32.126Z,99.90
2019-02-15T16:27:03.578Z,99.90
2019-02-15T16:29:35.078Z,99.90
2019-02-15T16:32:06.704Z,99.90
2019-02-15T16:34:39.938Z,99.90
2019-02-15T16:37:11.470Z,99.90
2019-02-15T16:39:44.884Z,99.90
2019-02-15T16:42:16.466Z,99.90
2019-02-15T16:44:48.088Z,99.90
2019-02-15T16:47:19.968Z,99.90
2019-02-15T16:49:51.829Z,99.90
2019-02-15T16:52:23.379Z,99.90
2019-02-15T16:54:54.986Z,99.90
2019-02-15T16:57:26.537Z,99.90
2019-02-15T16:59:58.375Z,99.90
2019-02-15T17:02:30.107Z,99.90
2019-02-15T17:05:03.806Z,99.90
2019-02-15T17:07:35.874Z,99.90
2019-02-15T17:10:07.953Z,99.90
2019-02-15T17:12:40.039Z,99.90
2019-02-15T17:15:12.254Z,99.90
2019-02-15T17:17:44.034Z,99.90
2019-02-15T17:20:17.218Z,99.90
2019-02-15T17:22:49.135Z,99.90
2019-02-15T17:25:20.934Z,99.90
2019-02-15T17:27:52.544Z,99.90
2019-02-15T17:30:24.180Z,99.90
2019-02-15T17:32:57.421Z,99.90
2019-02-15T17:35:29.361Z,99.90
2019-02-15T17:38:01.465Z,99.90
2019-02-15T17:40:33.118Z,99.90
2019-02-15T17:43:04.904Z,99.90
2019-02-15T17:45:37.193Z,99.90
2019-02-15T17:48:09.565Z,99.90
2019-02-15T17:50:41.511Z,99.90
2019-02-15T17:53:13.291Z,99.90
2019-02-15T17:55:44.877Z,99.90
2019-02-15T17:58:16.280Z,99.90
2019-02-15T18:00:47.639Z,99.90
2019-02-15T18:03:19.694Z,99.90
2019-02-15T18:05:51.634Z,99.90
2019-02-15T18:08:23.604Z,99.90
2019-02-15T18:10:55.386Z,99.90
2019-02-15T18:13:27.571Z,99.90
2019-02-15T18:15:59.350Z,99.90
2019-02-15T18:18:31.170Z,99.90
2019-02-15T18:21:03.060Z,99.90
2019-02-15T18:23:34.911Z,99.90
2019-02-15T18:26:06.632Z,99.90
2019-02-15T18:28:38.235Z,99.90
2019-02-15T18:31:10.214Z,99.90
2019-02-15T18:33:41.903Z,99.90
2019-02-15T18:36:13.927Z,99.90
2019-02-15T18:38:45.469Z,99.90
2019-02-15T18:41:18.450Z,99.90
2019-02-15T18:43:50.490Z,99.90
2019-02-15T18:46:22.044Z,99.90
2019-02-15T18:48:53.753Z,99.90
2019-02-15T18:51:26.625Z,99.90
2019-02-15T18:54:01.828Z,99.90
2019-02-15T18:56:33.254Z,99.90
2019-02-15T18:59:04.835Z,99.90
2019-02-15T19:01:36.505Z,99.90
2019-02-15T19:04:08.438Z,99.90
2019-02-15T19:06:39.943Z,99.90
2019-02-15T19:09:12.135Z,99.90
2019-02-15T19:11:43.813Z,99.90
2019-02-15T19:14:15.418Z,99.90
2019-02-15T19:16:46.744Z,99.90
2019-02-15T19:19:28.657Z,99.90
2019-02-15T19:21:53.354Z,99.90
2019-02-15T19:24:25.239Z,99.90
2019-02-15T19:26:58.559Z,99.90
2019-02-15T19:29:30.047Z,99.90
2019-02-15T19:32:02.365Z,99.90
2019-02-15T19:34:33.865Z,99.90
2019-02-15T19:37:06.539Z,99.90
2019-02-15T19:39:38.468Z,99.90
2019-02-15T19:42:14.855Z,99.90
2019-02-15T19:44:46.541Z,99.90
2019-02-15T19:47:18.451Z,99.90
2019-02-15T19:49:51.491Z,99.90
2019-02-15T19:52:23.084Z,99.90
2019-02-15T19:54:55.214Z,99.90
2019-02-15T19:57:27.190Z,99.90
2019-02-15T19:59:59.184Z,99.90
2019-02-15T20:02:30.694Z,99.90
2019-02-15T20:05:02.250Z,99.90
2019-02-15T20:07:33.817Z,99.90
2019-02-15T20:10:07.013Z,99.90
2019-02-15T20:12:38.451Z,99.90
2019-02-15T20:15:11.487Z,99.90
2019-02-15T20:17:43.439Z,99.90
2019-02-15T20:20:14.939Z,99.90
2019-02-15T20:22:48.877Z,99.90
2019-02-15T20:25:20.720Z,99.90
2019-02-15T20:27:53.321Z,99.90
2019-02-15T20:30:26.747Z,99.90
2019-02-15T20:32:58.345Z,99.90
2019-02-15T20:35:29.921Z,99.90
2019-02-15T20:38:03.062Z,99.90
2019-02-15T20:40:35.250Z,99.90
2019-02-15T20:43:06.924Z,99.90
2019-02-15T20:45:38.418Z,99.90
2019-02-15T20:48:12.453Z,99.90
2019-02-15T20:50:43.266Z,99.90
2019-02-15T20:53:15.316Z,99.90
2019-02-15T20:55:46.947Z,99.90
2019-02-15T20:58:18.700Z,99.90
2019-02-15T21:00:52.081Z,99.90
2019-02-15T21:03:23.640Z,99.90
2019-02-15T21:05:55.229Z,99.90
2019-02-15T21:08:27.171Z,99.90
2019-02-15T21:10:58.912Z,99.90
2019-02-15T21:13:30.396Z,99.90
2019-02-15T21:16:02.232Z,99.90
2019-02-15T21:18:34.152Z,99.90
2019-02-15T21:21:05.557Z,99.90
2019-02-15T21:23:37.024Z,99.90
2019-02-15T21:26:13.970Z,99.90
2019-02-15T21:28:47.196Z,99.90
2019-02-15T21:31:19.000Z,99.90
2019-02-15T21:33:50.430Z,99.90
2019-02-15T21:36:22.156Z,99.90
2019-02-15T21:38:53.574Z,99.90
2019-02-15T21:41:25.367Z,99.90
2019-02-15T21:43:58.664Z,99.90
2019-02-15T21:46:30.373Z,99.90
2019-02-15T21:49:02.128Z,99.90
2019-02-15T21:51:33.519Z,99.90
2019-02-15T21:54:06.221Z,99.90
2019-02-15T21:56:37.896Z,99.90
2019-02-15T21:59:09.405Z,99.90
2019-02-15T22:01:41.486Z,99.90
2019-02-15T22:04:14.909Z,99.90
2019-02-15T22:06:46.928Z,99.90
2019-02-15T22:09:18.709Z,99.90
2019-02-15T22:11:50.521Z,99.90
2019-02-15T22:14:21.831Z,99.90
2019-02-15T22:16:55.207Z,99.90
2019-02-15T22:19:26.857Z,99.90
2019-02-15T22:21:58.497Z,99.90
2019-02-15T22:24:30.511Z,99.90
2019-02-15T22:27:03.843Z,99.90
2019-02-15T22:29:35.644Z,99.90
2019-02-15T22:32:07.385Z,99.90
2019-02-15T22:34:39.248Z,99.90
2019-02-15T22:37:10.842Z,99.90
2019-02-15T22:39:42.279Z,99.90
2019-02-15T22:42:14.151Z,99.90
2019-02-15T22:44:45.799Z,99.90
2019-02-15T22:47:17.297Z,99.90
2019-02-15T22:49:48.915Z,99.90
2019-02-15T22:52:20.475Z,99.90
2019-02-15T22:54:51.979Z,99.90
2019-02-15T22:57:23.805Z,99.90
2019-02-15T22:59:55.407Z,99.90
2019-02-15T23:02:28.845Z,99.90
2019-02-15T23:05:00.722Z,99.90
2019-02-15T23:07:32.174Z,99.90
2019-02-15T23:10:05.244Z,99.90
2019-02-15T23:12:37.009Z,99.90
2019-02-15T23:15:09.092Z,99.90
2019-02-15T23:17:40.580Z,99.90
2019-02-15T23:20:12.236Z,99.90
2019-02-15T23:22:43.775Z,99.90
2019-02-15T23:25:15.283Z,99.90
2019-02-15T23:27:47.090Z,99.90
2019-02-15T23:30:19.038Z,99.90
2019-02-15T23:32:51.508Z,99.90
2019-02-15T23:35:23.113Z,99.90
2019-02-15T23:37:54.541Z,99.90
2019-02-15T23:40:26.018Z,99.90
2019-02-15T23:42:57.585Z,99.90
2019-02-15T23:45:29.036Z,99.90
2019-02-15T23:48:00.536Z,99.90
2019-02-15T23:50:32.821Z,99.90
2019-02-15T23:53:04.310Z,99.90
2019-02-15T23:55:36.165Z,99.90
2019-02-15T23:58:08.278Z,99.90
